Gulf Coast — WDC9139 — position and weather

sailwx.info

Track history (hours):
 
Tides and Currents Weather Stations Pressure Air Temp Water Temp Dewpoint Dewpoint Depression Visibility Wind Speed Wind Dir Waves Ship Positions

Gulf Coast

Owner: Dann Marine Towing, LC, Chesapeake City, MD. More information available from US FCC via Universal Licensing System and Coast Guard Vessel Documentation Center.

Last reported at 2017-Sep-21 05:00 UTC. Time now 2017-Sep-21 05:08 UTC.
Position N 39°54' W 075°12'.

Length 30 m; draft 4 m.

Type: Tug. MMSI: 367098070.

Date/timePositionNaut miles runAvg speedWind from/ knotsBaromVisibWave heightAir tempDewpointWater temp
2017-Sep-21 05:00N 39°54' W 075°12'3 5.4
2017-Sep-21 04:31N 39°53' W 075°09'1 1.8
2017-Sep-21 04:00N 39°54' W 075°09'0 0.0
2017-Sep-21 03:30N 39°54' W 075°09'0 0.0
2017-Sep-21 03:00N 39°54' W 075°09'0 0.0
2017-Sep-21 02:31N 39°54' W 075°09'0 0.0
2017-Sep-21 02:00N 39°54' W 075°09'0 0.0
2017-Sep-21 01:30N 39°54' W 075°09'0 0.0
2017-Sep-21 01:00N 39°54' W 075°09'0 0.0
2017-Sep-21 00:30N 39°54' W 075°09'0 0.0
2017-Sep-21 00:00N 39°54' W 075°09'0 0.0
2017-Sep-20 23:30N 39°54' W 075°09'0 0.0
2017-Sep-20 23:01N 39°54' W 075°09'0 0.0
2017-Sep-20 22:31N 39°54' W 075°09'0 0.0
2017-Sep-20 22:00N 39°54' W 075°09'0 0.0
2017-Sep-20 21:31N 39°54' W 075°09'0 0.0
2017-Sep-20 21:00N 39°54' W 075°09'0 0.0
2017-Sep-20 20:31N 39°54' W 075°09'0 0.0
2017-Sep-20 20:01N 39°54' W 075°09'0 0.0
2017-Sep-20 19:31N 39°54' W 075°09'2 4.9
2017-Sep-20 19:00N 39°53' W 075°12'1 1.4
2017-Sep-20 18:31N 39°54' W 075°12'0 0.0
2017-Sep-20 18:00N 39°54' W 075°12'0 0.0
2017-Sep-20 17:31N 39°54' W 075°12'0 0.0
2017-Sep-20 17:01N 39°54' W 075°12'0 0.0
2017-Sep-20 16:31N 39°54' W 075°12'0 0.0
2017-Sep-20 16:01N 39°54' W 075°12'0 0.0
2017-Sep-20 15:31N 39°54' W 075°12'0 0.0
2017-Sep-20 15:01N 39°54' W 075°12'0 0.0
2017-Sep-20 14:01N 39°54' W 075°12'1 1.3
2017-Sep-20 13:31N 39°54' W 075°12'0 0.0
2017-Sep-20 13:01N 39°54' W 075°12'0 0.0
2017-Sep-20 12:30N 39°54' W 075°12'0 0.0
2017-Sep-20 12:00N 39°54' W 075°12'0 0.0
2017-Sep-20 11:31N 39°54' W 075°12'0 0.0
2017-Sep-20 11:00N 39°54' W 075°12'0 0.0
2017-Sep-20 10:31N 39°54' W 075°12'0 0.0
2017-Sep-20 10:01N 39°54' W 075°12'1 1.2
2017-Sep-20 09:30N 39°54' W 075°12'1 1.8
2017-Sep-20 09:01N 39°53' W 075°12'4 7.0
2017-Sep-20 08:31N 39°51' W 075°16'4 7.4
2017-Sep-20 08:01N 39°51' W 075°21'4 7.0
2017-Sep-20 07:31N 39°49' W 075°24'0 0.6
2017-Sep-20 07:00N 39°48' W 075°24'0 0.2
2017-Sep-20 06:30N 39°48' W 075°24'0 0.2
2017-Sep-20 06:00N 39°48' W 075°24'0 0.0
2017-Sep-20 05:30N 39°48' W 075°24'0 0.0
2017-Sep-20 05:01N 39°48' W 075°24'0 0.0
2017-Sep-20 04:30N 39°48' W 075°24'0 0.0
2017-Sep-20 04:00N 39°48' W 075°24'0 0.0
2017-Sep-20 03:30N 39°48' W 075°24'0 0.0
2017-Sep-20 03:00N 39°48' W 075°24'0 0.0
2017-Sep-20 02:31N 39°48' W 075°24'0 0.3
2017-Sep-20 02:01N 39°48' W 075°24'1 1.2
2017-Sep-20 01:31N 39°49' W 075°24'0 0.4
2017-Sep-20 01:01N 39°49' W 075°24'1 2.4
2017-Sep-20 00:30N 39°50' W 075°23'4 7.2
2017-Sep-20 00:00N 39°51' W 075°18'4 7.8
2017-Sep-19 23:31N 39°52' W 075°13'2 3.8
2017-Sep-19 23:01N 39°54' W 075°12'0 0.0
2017-Sep-19 22:30N 39°54' W 075°12'0 0.0
2017-Sep-19 22:01N 39°54' W 075°12'1 2.8
2017-Sep-19 21:31N 39°53' W 075°11'4 8.5
2017-Sep-19 21:00N 39°57' W 075°08'4 7.6
2017-Sep-19 20:31N 39°59' W 075°04'0 0.0
2017-Sep-19 20:01N 39°59' W 075°04'3 6.3
2017-Sep-19 19:31N 39°57' W 075°08'2 4.6
2017-Sep-19 19:01N 39°55' W 075°08'0 0.1
2017-Sep-19 18:31N 39°55' W 075°08'1 3.0
2017-Sep-19 18:00N 39°54' W 075°09'0 0.0
2017-Sep-19 17:31N 39°54' W 075°09'0 0.0
2017-Sep-19 17:01N 39°54' W 075°09'0 0.0
2017-Sep-19 16:30N 39°54' W 075°09'0 0.0
2017-Sep-19 16:01N 39°54' W 075°09'0 0.0
2017-Sep-19 15:31N 39°54' W 075°09'0 0.0
2017-Sep-19 15:01N 39°54' W 075°09'0 0.0
2017-Sep-19 14:31N 39°54' W 075°09'0 0.0
2017-Sep-19 14:00N 39°54' W 075°09'1 3.0
2017-Sep-19 13:31N 39°55' W 075°08'0 0.9
2017-Sep-19 13:01N 39°55' W 075°08'0 0.4
2017-Sep-19 12:31N 39°55' W 075°08'0 0.5
2017-Sep-19 12:00N 39°54' W 075°08'2 3.2
2017-Sep-19 11:31N 39°53' W 075°09'2 4.6
2017-Sep-19 11:00N 39°53' W 075°12'1 1.1
2017-Sep-19 10:31N 39°53' W 075°11'2 4.8
2017-Sep-19 10:01N 39°54' W 075°09'0 0.0
2017-Sep-19 09:30N 39°54' W 075°09'0 0.0
2017-Sep-19 09:01N 39°54' W 075°09'0 0.0
2017-Sep-19 08:31N 39°54' W 075°09'0 0.0
2017-Sep-19 08:00N 39°54' W 075°09'0 0.0
2017-Sep-19 07:30N 39°54' W 075°09'0 0.0
2017-Sep-19 07:01N 39°54' W 075°09'0 0.0
2017-Sep-19 06:31N 39°54' W 075°09'0 0.0
2017-Sep-19 06:01N 39°54' W 075°09'0 0.0
2017-Sep-19 05:30N 39°54' W 075°09'0 0.0
2017-Sep-19 05:01N 39°54' W 075°09'0 0.0
2017-Sep-19 04:31N 39°54' W 075°09'0 0.0
2017-Sep-19 04:00N 39°54' W 075°09'0 0.0
2017-Sep-19 03:31N 39°54' W 075°09'0 0.0
2017-Sep-19 03:00N 39°54' W 075°09'0 0.0
2017-Sep-19 02:30N 39°54' W 075°09'0 0.0
2017-Sep-19 02:01N 39°54' W 075°09'0 0.0
2017-Sep-19 01:31N 39°54' W 075°09'0 0.0
2017-Sep-19 01:00N 39°54' W 075°09'0 0.0
2017-Sep-19 00:31N 39°54' W 075°09'0 0.0
2017-Sep-19 00:00N 39°54' W 075°09'0 0.0
2017-Sep-18 23:31N 39°54' W 075°09'0 0.0
2017-Sep-18 23:01N 39°54' W 075°09'0 0.0
2017-Sep-18 22:31N 39°54' W 075°09'0 0.0
2017-Sep-18 22:00N 39°54' W 075°09'0 0.0
2017-Sep-18 21:31N 39°54' W 075°09'0 0.0
2017-Sep-18 21:00N 39°54' W 075°09'0 0.0
2017-Sep-18 20:30N 39°54' W 075°09'2 4.8
2017-Sep-18 20:00N 39°53' W 075°12'1 1.8
2017-Sep-18 19:30N 39°54' W 075°12'3 5.0
2017-Sep-18 19:00N 39°52' W 075°14'4 7.5
2017-Sep-18 18:30N 39°51' W 075°19'4 8.1
2017-Sep-18 18:00N 39°49' W 075°24'4 8.5
2017-Sep-18 17:30N 39°47' W 075°28'4 8.3
2017-Sep-18 17:00N 39°43' W 075°31'0 0.8
2017-Sep-18 16:30N 39°43' W 075°31'0 0.0
2017-Sep-18 16:00N 39°43' W 075°31'0 0.0
2017-Sep-18 15:30N 39°43' W 075°31'0 0.0
2017-Sep-18 15:00N 39°43' W 075°31'0 0.0
2017-Sep-18 14:30N 39°43' W 075°31'0 0.0
2017-Sep-18 14:00N 39°43' W 075°31'0 0.0
2017-Sep-18 13:30N 39°43' W 075°31'0 0.0
2017-Sep-18 13:00N 39°43' W 075°31'0 0.0
2017-Sep-18 12:30N 39°43' W 075°31'0 0.0
2017-Sep-18 12:01N 39°43' W 075°31'1 2.0
2017-Sep-18 11:30N 39°44' W 075°30'3 6.4
2017-Sep-18 11:00N 39°47' W 075°28'510.2
2017-Sep-18 10:30N 39°49' W 075°23'611.2
2017-Sep-18 10:00N 39°51' W 075°16'510.5
2017-Sep-18 09:31N 39°53' W 075°09'1 2.2
2017-Sep-18 09:01N 39°54' W 075°08'1 2.3
2017-Sep-18 08:31N 39°53' W 075°09'2 3.7
2017-Sep-18 08:00N 39°53' W 075°12'2 3.4
2017-Sep-18 07:31N 39°52' W 075°13'3 6.5
2017-Sep-18 07:00N 39°51' W 075°17'3 6.5
2017-Sep-18 06:30N 39°50' W 075°21'3 5.0
2017-Sep-18 06:00N 39°49' W 075°24'1 1.1
2017-Sep-18 05:31N 39°48' W 075°24'0 0.4
2017-Sep-18 05:00N 39°49' W 075°24'0 0.2
2017-Sep-18 04:30N 39°49' W 075°24'0 0.1
2017-Sep-18 04:00N 39°49' W 075°24'0 0.0
2017-Sep-18 03:31N 39°49' W 075°24'0 0.0
2017-Sep-18 03:01N 39°49' W 075°24'0 0.3
2017-Sep-18 02:30N 39°49' W 075°24'0 0.2
2017-Sep-18 02:01N 39°49' W 075°24'0 0.1
2017-Sep-18 01:30N 39°49' W 075°24'0 0.8
2017-Sep-18 01:00N 39°49' W 075°24'3 5.1
2017-Sep-18 00:30N 39°51' W 075°21'3 6.4
2017-Sep-18 00:00N 39°51' W 075°17'4 7.1
2017-Sep-17 23:30N 39°52' W 075°13'1 2.6
2017-Sep-17 23:00N 39°53' W 075°12'1 1.1
2017-Sep-17 22:30N 39°53' W 075°12'3 5.0
2017-Sep-17 22:00N 39°54' W 075°09'0 0.0
2017-Sep-17 21:30N 39°54' W 075°09'0 0.0
2017-Sep-17 21:00N 39°54' W 075°09'0 0.2
2017-Sep-17 20:30N 39°54' W 075°08'0 0.0
2017-Sep-17 20:00N 39°54' W 075°08'2 4.3
2017-Sep-17 19:30N 39°53' W 075°11'3 6.8
2017-Sep-17 19:00N 39°51' W 075°15'3 6.9
2017-Sep-17 18:30N 39°51' W 075°19'4 7.1
2017-Sep-17 18:00N 39°49' W 075°23'4 7.6
2017-Sep-17 17:30N 39°47' W 075°27'4 7.2
2017-Sep-17 17:00N 39°44' W 075°30'1 2.8
2017-Sep-17 16:30N 39°43' W 075°31'0 0.5
2017-Sep-17 16:00N 39°43' W 075°31'0 0.0
2017-Sep-17 15:30N 39°43' W 075°31'0 0.0
2017-Sep-17 15:00N 39°43' W 075°31'0 0.0
2017-Sep-17 14:31N 39°43' W 075°31'0 0.0
2017-Sep-17 14:01N 39°43' W 075°31'0 0.0
2017-Sep-17 13:30N 39°43' W 075°31'0 0.0
2017-Sep-17 13:01N 39°43' W 075°31'0 0.0
2017-Sep-17 12:31N 39°43' W 075°31'0 0.5
2017-Sep-17 12:01N 39°43' W 075°31'2 3.8
2017-Sep-17 11:30N 39°45' W 075°30'4 7.4
2017-Sep-17 11:00N 39°48' W 075°27'4 7.4
2017-Sep-17 10:31N 39°50' W 075°23'4 7.2
2017-Sep-17 10:01N 39°51' W 075°18'4 7.4
2017-Sep-17 09:30N 39°52' W 075°14'4 7.1
2017-Sep-17 09:00N 39°53' W 075°09'3 6.5
2017-Sep-17 08:31N 39°56' W 075°08'3 6.7
2017-Sep-17 08:00N 39°59' W 075°05'1 2.0
2017-Sep-17 07:31N 39°59' W 075°04'1 2.0
2017-Sep-17 07:01N 39°59' W 075°05'0 0.0
2017-Sep-17 06:31N 39°59' W 075°05'0 0.0
2017-Sep-17 06:00N 39°59' W 075°05'0 0.0
2017-Sep-17 05:30N 39°59' W 075°05'0 0.0
2017-Sep-17 05:00N 39°59' W 075°05'0 0.0
2017-Sep-17 04:31N 39°59' W 075°05'0 0.0
2017-Sep-17 04:00N 39°59' W 075°05'0 0.0
2017-Sep-17 03:30N 39°59' W 075°05'0 0.0
2017-Sep-17 03:01N 39°59' W 075°05'0 0.0
2017-Sep-17 02:30N 39°59' W 075°05'1 2.1
2017-Sep-17 02:00N 39°59' W 075°04'4 8.6
2017-Sep-17 01:30N 39°56' W 075°08'2 4.1
2017-Sep-17 01:00N 39°54' W 075°08'0 0.1
2017-Sep-17 00:30N 39°54' W 075°09'0 0.0
2017-Sep-17 00:00N 39°54' W 075°09'0 0.0
2017-Sep-16 23:30N 39°54' W 075°09'0 0.0
2017-Sep-16 23:00N 39°54' W 075°09'0 0.0
2017-Sep-16 22:30N 39°54' W 075°09'0 0.0
2017-Sep-16 22:00N 39°54' W 075°09'0 0.0
2017-Sep-16 21:30N 39°54' W 075°09'0 0.0
2017-Sep-16 21:00N 39°54' W 075°09'0 0.0
2017-Sep-16 20:30N 39°54' W 075°09'0 0.0
2017-Sep-16 20:00N 39°54' W 075°09'0 0.0
2017-Sep-16 19:30N 39°54' W 075°09'0 0.0
2017-Sep-16 19:00N 39°54' W 075°09'0 0.0
2017-Sep-16 18:30N 39°54' W 075°09'0 0.0
2017-Sep-16 18:00N 39°54' W 075°09'0 0.0
2017-Sep-16 17:30N 39°54' W 075°09'0 0.0
2017-Sep-16 17:00N 39°54' W 075°09'0 0.0
2017-Sep-16 16:30N 39°54' W 075°09'0 0.0
2017-Sep-16 16:00N 39°54' W 075°09'0 0.0
2017-Sep-16 15:30N 39°54' W 075°09'0 0.0
2017-Sep-16 15:00N 39°54' W 075°09'0 0.0
2017-Sep-16 14:30N 39°54' W 075°09'0 0.0
2017-Sep-16 14:00N 39°54' W 075°09'0 0.0
2017-Sep-16 13:30N 39°54' W 075°09'0 0.0
2017-Sep-16 13:00N 39°54' W 075°09'0 0.0
2017-Sep-16 12:31N 39°54' W 075°09'2 4.9
2017-Sep-16 12:00N 39°53' W 075°12'0 0.3
2017-Sep-16 11:31N 39°53' W 075°12'3 5.5
2017-Sep-16 11:00N 39°54' W 075°08'4 8.3
2017-Sep-16 10:30N 39°58' W 075°08'3 6.1
2017-Sep-16 10:00N 39°59' W 075°04'1 2.2
2017-Sep-16 09:30N 39°59' W 075°05'0 0.0
2017-Sep-16 09:00N 39°59' W 075°05'0 0.0
2017-Sep-16 08:30N 39°59' W 075°05'0 0.0
2017-Sep-16 08:01N 39°59' W 075°05'0 0.0
2017-Sep-16 07:31N 39°59' W 075°05'0 0.0
2017-Sep-16 07:00N 39°59' W 075°05'0 0.4
2017-Sep-16 06:30N 39°59' W 075°05'1 1.5
2017-Sep-16 06:00N 39°59' W 075°04'3 6.2
2017-Sep-16 05:31N 39°58' W 075°08'4 7.3
2017-Sep-16 05:00N 39°54' W 075°08'3 6.0
2017-Sep-16 04:31N 39°53' W 075°12'1 1.5
2017-Sep-16 04:01N 39°54' W 075°12'2 3.9
2017-Sep-16 03:31N 39°53' W 075°10'1 2.7
2017-Sep-16 03:00N 39°54' W 075°09'0 0.0
2017-Sep-16 02:30N 39°54' W 075°09'0 0.0
2017-Sep-16 02:00N 39°54' W 075°09'0 0.0
2017-Sep-16 01:31N 39°54' W 075°09'0 0.0
2017-Sep-16 01:00N 39°54' W 075°09'0 0.0
2017-Sep-16 00:30N 39°54' W 075°09'0 0.0
2017-Sep-16 00:00N 39°54' W 075°09'0 0.0
2017-Sep-15 23:30N 39°54' W 075°09'0 0.0
2017-Sep-15 23:00N 39°54' W 075°09'0 0.0
2017-Sep-15 22:30N 39°54' W 075°09'0 0.0
2017-Sep-15 22:00N 39°54' W 075°09'0 0.0
2017-Sep-15 21:30N 39°54' W 075°09'0 0.0
2017-Sep-15 21:00N 39°54' W 075°09'0 0.0
2017-Sep-15 20:30N 39°54' W 075°09'0 0.0
2017-Sep-15 20:00N 39°54' W 075°09'0 0.0
2017-Sep-15 19:30N 39°54' W 075°09'0 0.0
2017-Sep-15 19:00N 39°54' W 075°09'0 0.0
2017-Sep-15 18:30N 39°54' W 075°09'0 0.0
2017-Sep-15 18:00N 39°54' W 075°09'0 0.0
2017-Sep-15 17:30N 39°54' W 075°09'0 0.0
2017-Sep-15 17:01N 39°54' W 075°09'0 0.0
2017-Sep-15 16:30N 39°54' W 075°09'0 0.0
2017-Sep-15 16:00N 39°54' W 075°09'0 0.0
2017-Sep-15 15:30N 39°54' W 075°09'0 0.0
2017-Sep-15 15:00N 39°54' W 075°09'0 0.0
2017-Sep-15 14:30N 39°54' W 075°09'4 7.0
2017-Sep-15 14:00N 39°52' W 075°13'0 0.7
2017-Sep-15 13:30N 39°52' W 075°13'2 3.2
2017-Sep-15 13:00N 39°53' W 075°12'0 0.5
2017-Sep-15 12:31N 39°54' W 075°12'0 0.0
2017-Sep-15 12:01N 39°54' W 075°12'0 0.0
2017-Sep-15 11:30N 39°54' W 075°12'0 0.0
2017-Sep-15 11:00N 39°54' W 075°12'0 0.0
2017-Sep-15 10:30N 39°54' W 075°12'0 0.0
2017-Sep-15 10:01N 39°54' W 075°12'0 0.0
2017-Sep-15 09:31N 39°54' W 075°12'0 0.0
2017-Sep-15 09:01N 39°54' W 075°12'0 0.0
2017-Sep-15 08:31N 39°54' W 075°12'0 0.0
2017-Sep-15 08:01N 39°54' W 075°12'0 0.0
2017-Sep-15 07:31N 39°54' W 075°12'0 0.0
2017-Sep-15 07:00N 39°54' W 075°12'0 0.0
2017-Sep-15 06:31N 39°54' W 075°12'0 0.0
2017-Sep-15 06:01N 39°54' W 075°12'0 0.0
2017-Sep-15 05:31N 39°54' W 075°12'0 0.0
2017-Sep-15 05:00N 39°54' W 075°12'0 0.0
2017-Sep-15 04:30N 39°54' W 075°12'0 0.0
2017-Sep-15 04:01N 39°54' W 075°12'1 1.1
2017-Sep-15 03:30N 39°54' W 075°12'1 1.5
2017-Sep-15 03:00N 39°53' W 075°12'4 8.0
2017-Sep-15 02:31N 39°51' W 075°16'4 7.6
2017-Sep-15 02:00N 39°50' W 075°21'3 5.2
2017-Sep-15 01:30N 39°49' W 075°24'0 0.0
2017-Sep-15 01:00N 39°49' W 075°24'0 0.0
2017-Sep-15 00:30N 39°49' W 075°24'0 0.0
2017-Sep-15 00:00N 39°49' W 075°24'0 0.0
2017-Sep-14 23:30N 39°49' W 075°24'0 0.0
2017-Sep-14 23:00N 39°49' W 075°24'0 0.0
2017-Sep-14 22:30N 39°49' W 075°24'0 0.0
2017-Sep-14 22:00N 39°49' W 075°24'0 0.7
2017-Sep-14 21:30N 39°49' W 075°23'1 1.8
2017-Sep-14 21:00N 39°50' W 075°23'3 6.1
2017-Sep-14 20:30N 39°51' W 075°19'3 6.4
2017-Sep-14 20:00N 39°51' W 075°15'3 6.7
2017-Sep-14 19:30N 39°53' W 075°12'2 3.0
2017-Sep-14 19:00N 39°55' W 075°13'0 0.0
2017-Sep-14 18:30N 39°55' W 075°13'0 0.0
2017-Sep-14 18:00N 39°55' W 075°13'0 0.0
2017-Sep-14 17:30N 39°55' W 075°13'0 0.0
2017-Sep-14 17:00N 39°55' W 075°13'0 0.0
2017-Sep-14 16:30N 39°55' W 075°13'0 0.0
2017-Sep-14 16:00N 39°55' W 075°13'0 0.2
2017-Sep-14 15:31N 39°55' W 075°13'4 7.4
2017-Sep-14 15:00N 39°53' W 075°08'0 0.7
2017-Sep-14 14:31N 39°54' W 075°09'0 0.0
2017-Sep-14 14:01N 39°54' W 075°09'0 0.0
2017-Sep-14 13:31N 39°54' W 075°09'0 0.0
2017-Sep-14 13:01N 39°54' W 075°09'0 0.0
2017-Sep-14 12:31N 39°54' W 075°09'0 0.0
2017-Sep-14 12:01N 39°54' W 075°09'0 0.1
2017-Sep-14 11:31N 39°54' W 075°08'4 7.6
2017-Sep-14 11:01N 39°52' W 075°13'0 0.1
2017-Sep-14 10:31N 39°52' W 075°13'3 5.5
2017-Sep-14 10:00N 39°53' W 075°10'2 3.7
2017-Sep-14 09:31N 39°54' W 075°08'0 0.0
2017-Sep-14 09:00N 39°54' W 075°08'0 0.0
2017-Sep-14 08:30N 39°54' W 075°08'0 0.0
2017-Sep-14 08:00N 39°54' W 075°08'0 0.0
2017-Sep-14 07:30N 39°54' W 075°08'0 0.0
2017-Sep-14 07:00N 39°54' W 075°08'0 0.0
2017-Sep-14 06:30N 39°54' W 075°08'0 0.0
2017-Sep-14 06:00N 39°54' W 075°08'0 0.0
2017-Sep-14 05:31N 39°54' W 075°08'0 0.0
2017-Sep-14 05:00N 39°54' W 075°08'0 0.0
2017-Sep-14 04:30N 39°54' W 075°08'1 2.2
2017-Sep-14 04:01N 39°53' W 075°08'3 5.1
2017-Sep-14 03:31N 39°53' W 075°12'1 2.9
2017-Sep-14 03:00N 39°55' W 075°13'0 0.0
2017-Sep-14 02:30N 39°55' W 075°13'3 5.6
2017-Sep-14 02:00N 39°53' W 075°10'4 7.4
2017-Sep-14 01:30N 39°56' W 075°08'3 6.2
2017-Sep-14 01:00N 39°59' W 075°06'0 0.3
2017-Sep-14 00:31N 39°59' W 075°06'2 3.8
2017-Sep-14 00:00N 39°58' W 075°08'2 4.1
2017-Sep-13 23:30N 39°59' W 075°05'1 1.7
2017-Sep-13 23:00N 39°58' W 075°06'4 8.3
2017-Sep-13 22:31N 39°54' W 075°08'1 1.6
2017-Sep-13 22:00N 39°54' W 075°09'0 0.0
2017-Sep-13 21:30N 39°54' W 075°09'0 0.0
2017-Sep-13 21:01N 39°54' W 075°09'0 0.0
2017-Sep-13 20:30N 39°54' W 075°09'0 0.0
2017-Sep-13 20:00N 39°54' W 075°09'0 0.0
2017-Sep-13 19:31N 39°54' W 075°09'0 0.0
2017-Sep-13 19:01N 39°54' W 075°09'1 2.0
2017-Sep-13 18:30N 39°53' W 075°09'2 3.9
2017-Sep-13 18:01N 39°53' W 075°12'2 3.3
2017-Sep-13 17:30N 39°52' W 075°13'4 7.1
2017-Sep-13 17:01N 39°51' W 075°17'4 7.9
2017-Sep-13 16:30N 39°50' W 075°22'4 8.2
2017-Sep-13 16:00N 39°47' W 075°27'4 8.2
2017-Sep-13 15:30N 39°44' W 075°30'2 3.0
2017-Sep-13 15:00N 39°43' W 075°31'0 0.3
2017-Sep-13 14:30N 39°43' W 075°31'0 0.0
2017-Sep-13 14:01N 39°43' W 075°31'0 0.0
2017-Sep-13 13:30N 39°43' W 075°31'0 0.0
2017-Sep-13 13:01N 39°43' W 075°31'0 0.2
2017-Sep-13 12:30N 39°43' W 075°31'0 0.0
2017-Sep-13 12:01N 39°43' W 075°31'1 1.7
2017-Sep-13 11:30N 39°42' W 075°31'0 0.3
2017-Sep-13 11:00N 39°43' W 075°30'0 0.3
2017-Sep-13 10:31N 39°43' W 075°30'0 0.8
2017-Sep-13 10:01N 39°43' W 075°30'1 2.9
2017-Sep-13 09:30N 39°44' W 075°30'2 3.4
2017-Sep-13 09:00N 39°46' W 075°29'2 3.6
2017-Sep-13 08:30N 39°47' W 075°27'2 4.0
2017-Sep-13 08:00N 39°48' W 075°25'2 3.8
2017-Sep-13 07:30N 39°49' W 075°23'2 3.9
2017-Sep-13 07:00N 39°51' W 075°21'2 4.2
2017-Sep-13 06:31N 39°51' W 075°18'2 4.8
2017-Sep-13 06:01N 39°51' W 075°15'3 5.3
2017-Sep-13 05:31N 39°53' W 075°12'3 5.2
2017-Sep-13 05:01N 39°53' W 075°09'1 2.5
2017-Sep-13 04:31N 39°54' W 075°08'0 0.0
2017-Sep-13 04:00N 39°54' W 075°08'0 0.0
2017-Sep-13 03:31N 39°54' W 075°08'0 0.0
2017-Sep-13 03:00N 39°54' W 075°08'0 0.0
2017-Sep-13 02:31N 39°54' W 075°08'0 0.0
2017-Sep-13 02:00N 39°54' W 075°08'0 0.0
2017-Sep-13 01:30N 39°54' W 075°08'2 4.2
2017-Sep-13 01:00N 39°56' W 075°08'4 8.0
2017-Sep-13 00:30N 39°59' W 075°04'0 0.2
2017-Sep-13 00:00N 39°59' W 075°04'1 1.7
2017-Sep-12 23:30N 39°59' W 075°05'0 0.0
2017-Sep-12 23:01N 39°59' W 075°05'0 0.0
2017-Sep-12 22:30N 39°59' W 075°05'0 0.0
2017-Sep-12 22:00N 39°59' W 075°05'1 1.2
2017-Sep-12 21:30N 39°59' W 075°05'4 7.6
2017-Sep-12 21:01N 39°56' W 075°08'2 4.5
2017-Sep-12 20:30N 39°54' W 075°09'0 0.0
2017-Sep-12 20:00N 39°54' W 075°09'0 0.0
2017-Sep-12 19:30N 39°54' W 075°09'0 0.0
2017-Sep-12 19:00N 39°54' W 075°09'0 0.0
2017-Sep-12 18:30N 39°54' W 075°09'0 0.0
2017-Sep-12 18:01N 39°54' W 075°09'0 0.0
2017-Sep-12 17:30N 39°54' W 075°09'0 0.0
2017-Sep-12 17:00N 39°54' W 075°09'0 0.0
2017-Sep-12 16:30N 39°54' W 075°09'0 0.0
2017-Sep-12 16:00N 39°54' W 075°09'0 0.0
2017-Sep-12 15:31N 39°54' W 075°09'0 0.0
2017-Sep-12 15:00N 39°54' W 075°09'0 0.0
2017-Sep-12 14:30N 39°54' W 075°09'0 0.0
2017-Sep-12 14:01N 39°54' W 075°09'0 0.0
2017-Sep-12 13:30N 39°54' W 075°09'0 0.0
2017-Sep-12 13:00N 39°54' W 075°09'0 0.0
2017-Sep-12 12:30N 39°54' W 075°09'5 1.7
2017-Sep-12 09:16N 39°59' W 075°05'0 0.0
2017-Sep-12 09:00N 39°59' W 075°05'0 0.0
2017-Sep-12 08:30N 39°59' W 075°05'0 0.0
2017-Sep-12 08:00N 39°59' W 075°05'0 0.0
2017-Sep-12 07:30N 39°59' W 075°05'0 0.0
2017-Sep-12 07:00N 39°59' W 075°05'2 4.2
2017-Sep-12 06:30N 39°58' W 075°08'4 7.9
2017-Sep-12 06:00N 39°54' W 075°08'3 5.3
2017-Sep-12 05:31N 39°53' W 075°12'0 0.0
2017-Sep-12 05:01N 39°53' W 075°12'0 0.0
2017-Sep-12 04:30N 39°53' W 075°12'0 0.0
2017-Sep-12 04:00N 39°53' W 075°12'0 0.1
2017-Sep-12 03:30N 39°54' W 075°12'0 0.0
2017-Sep-12 03:01N 39°54' W 075°12'0 0.0
2017-Sep-12 02:30N 39°54' W 075°12'0 0.0
2017-Sep-12 02:00N 39°54' W 075°12'0 0.0
2017-Sep-12 01:31N 39°54' W 075°12'0 0.4
2017-Sep-12 01:00N 39°53' W 075°12'4 7.0
2017-Sep-12 00:30N 39°56' W 075°08'4 8.7
2017-Sep-12 00:00N 39°59' W 075°04'2 4.0
2017-Sep-11 23:30N 39°58' W 075°07'4 8.3
2017-Sep-11 23:00N 39°54' W 075°08'1 1.3
2017-Sep-11 22:30N 39°54' W 075°09'0 0.0
2017-Sep-11 22:00N 39°54' W 075°09'0 0.0
2017-Sep-11 21:30N 39°54' W 075°09'0 0.0
2017-Sep-11 21:00N 39°54' W 075°09'0 0.0
2017-Sep-11 20:30N 39°54' W 075°09'0 0.1
2017-Sep-11 20:00N 39°54' W 075°08'4 7.5
2017-Sep-11 19:30N 39°52' W 075°13'510.1
2017-Sep-11 19:01N 39°51' W 075°19'510.6
2017-Sep-11 18:31N 39°48' W 075°25'0 0.0
2017-Sep-11 18:00N 39°48' W 075°25'0 0.8
2017-Sep-11 17:31N 39°48' W 075°25'3 6.1
2017-Sep-11 17:00N 39°46' W 075°28'4 7.3
2017-Sep-11 16:31N 39°43' W 075°30'3 6.8
2017-Sep-11 16:00N 39°40' W 075°32'3 6.2
2017-Sep-11 15:31N 39°38' W 075°35'3 6.1
2017-Sep-11 15:01N 39°35' W 075°33'4 7.5
2017-Sep-11 14:31N 39°33' W 075°38'5 9.9
2017-Sep-11 14:01N 39°32' W 075°44'4 8.7
2017-Sep-11 13:30N 39°32' W 075°50'4 8.7
2017-Sep-11 13:00N 39°30' W 075°55'4 8.8
2017-Sep-11 12:30N 39°27' W 075°59'4 8.5
2017-Sep-11 12:00N 39°24' W 076°03'4 8.4
2017-Sep-11 11:30N 39°22' W 076°08'4 8.0
2017-Sep-11 11:01N 39°20' W 076°12'4 7.5
2017-Sep-11 10:30N 39°17' W 076°14'4 7.9
2017-Sep-11 09:59N 39°13' W 076°15'4 8.1
2017-Sep-11 09:30N 39°10' W 076°18'3 5.9
2017-Sep-11 09:00N 39°10' W 076°22'4 8.2
2017-Sep-11 08:30N 39°11' W 076°27'4 7.8
2017-Sep-11 08:01N 39°13' W 076°32'3 5.9
2017-Sep-11 07:31N 39°15' W 076°34'0 0.6
2017-Sep-11 07:00N 39°15' W 076°34'0 0.1
2017-Sep-11 06:31N 39°15' W 076°34'0 0.0
2017-Sep-11 06:00N 39°15' W 076°34'0 0.0
2017-Sep-11 05:30N 39°15' W 076°34'0 0.0
2017-Sep-11 05:00N 39°15' W 076°34'  
Track history (hours):
 
Tides and Currents Weather Stations Pressure Air Temp Water Temp Dewpoint Dewpoint Depression Visibility Wind Speed Wind Dir Waves Ship Positions

Gulf Coast

Owner: Dann Marine Towing, LC, Chesapeake City, MD. More information available from US FCC via Universal Licensing System and Coast Guard Vessel Documentation Center.

Last reported at 2017-Sep-21 05:00 UTC. Time now 2017-Sep-21 05:08 UTC.
Position N 39°54' W 075°12'.

Length 30 m; draft 4 m.

Type: Tug. MMSI: 367098070.

Date/timePositionNaut miles runAvg speedWind from/ knotsBaromVisibWave heightAir tempDewpointWater temp
2017-Sep-21 05:00N 39°54' W 075°12'3 5.4
2017-Sep-21 04:31N 39°53' W 075°09'1 1.8
2017-Sep-21 04:00N 39°54' W 075°09'0 0.0
2017-Sep-21 03:30N 39°54' W 075°09'0 0.0
2017-Sep-21 03:00N 39°54' W 075°09'0 0.0
2017-Sep-21 02:31N 39°54' W 075°09'0 0.0
2017-Sep-21 02:00N 39°54' W 075°09'0 0.0
2017-Sep-21 01:30N 39°54' W 075°09'0 0.0
2017-Sep-21 01:00N 39°54' W 075°09'0 0.0
2017-Sep-21 00:30N 39°54' W 075°09'0 0.0
2017-Sep-21 00:00N 39°54' W 075°09'0 0.0
2017-Sep-20 23:30N 39°54' W 075°09'0 0.0
2017-Sep-20 23:01N 39°54' W 075°09'0 0.0
2017-Sep-20 22:31N 39°54' W 075°09'0 0.0
2017-Sep-20 22:00N 39°54' W 075°09'0 0.0
2017-Sep-20 21:31N 39°54' W 075°09'0 0.0
2017-Sep-20 21:00N 39°54' W 075°09'0 0.0
2017-Sep-20 20:31N 39°54' W 075°09'0 0.0
2017-Sep-20 20:01N 39°54' W 075°09'0 0.0
2017-Sep-20 19:31N 39°54' W 075°09'2 4.9
2017-Sep-20 19:00N 39°53' W 075°12'1 1.4
2017-Sep-20 18:31N 39°54' W 075°12'0 0.0
2017-Sep-20 18:00N 39°54' W 075°12'0 0.0
2017-Sep-20 17:31N 39°54' W 075°12'0 0.0
2017-Sep-20 17:01N 39°54' W 075°12'0 0.0
2017-Sep-20 16:31N 39°54' W 075°12'0 0.0
2017-Sep-20 16:01N 39°54' W 075°12'0 0.0
2017-Sep-20 15:31N 39°54' W 075°12'0 0.0
2017-Sep-20 15:01N 39°54' W 075°12'0 0.0
2017-Sep-20 14:01N 39°54' W 075°12'1 1.3
2017-Sep-20 13:31N 39°54' W 075°12'0 0.0
2017-Sep-20 13:01N 39°54' W 075°12'0 0.0
2017-Sep-20 12:30N 39°54' W 075°12'0 0.0
2017-Sep-20 12:00N 39°54' W 075°12'0 0.0
2017-Sep-20 11:31N 39°54' W 075°12'0 0.0
2017-Sep-20 11:00N 39°54' W 075°12'0 0.0
2017-Sep-20 10:31N 39°54' W 075°12'0 0.0
2017-Sep-20 10:01N 39°54' W 075°12'1 1.2
2017-Sep-20 09:30N 39°54' W 075°12'1 1.8
2017-Sep-20 09:01N 39°53' W 075°12'4 7.0
2017-Sep-20 08:31N 39°51' W 075°16'4 7.4
2017-Sep-20 08:01N 39°51' W 075°21'4 7.0
2017-Sep-20 07:31N 39°49' W 075°24'0 0.6
2017-Sep-20 07:00N 39°48' W 075°24'0 0.2
2017-Sep-20 06:30N 39°48' W 075°24'0 0.2
2017-Sep-20 06:00N 39°48' W 075°24'0 0.0
2017-Sep-20 05:30N 39°48' W 075°24'0 0.0
2017-Sep-20 05:01N 39°48' W 075°24'0 0.0
2017-Sep-20 04:30N 39°48' W 075°24'0 0.0
2017-Sep-20 04:00N 39°48' W 075°24'0 0.0
2017-Sep-20 03:30N 39°48' W 075°24'0 0.0
2017-Sep-20 03:00N 39°48' W 075°24'0 0.0
2017-Sep-20 02:31N 39°48' W 075°24'0 0.3
2017-Sep-20 02:01N 39°48' W 075°24'1 1.2
2017-Sep-20 01:31N 39°49' W 075°24'0 0.4
2017-Sep-20 01:01N 39°49' W 075°24'1 2.4
2017-Sep-20 00:30N 39°50' W 075°23'4 7.2
2017-Sep-20 00:00N 39°51' W 075°18'4 7.8
2017-Sep-19 23:31N 39°52' W 075°13'2 3.8
2017-Sep-19 23:01N 39°54' W 075°12'0 0.0
2017-Sep-19 22:30N 39°54' W 075°12'0 0.0
2017-Sep-19 22:01N 39°54' W 075°12'1 2.8
2017-Sep-19 21:31N 39°53' W 075°11'4 8.5
2017-Sep-19 21:00N 39°57' W 075°08'4 7.6
2017-Sep-19 20:31N 39°59' W 075°04'0 0.0
2017-Sep-19 20:01N 39°59' W 075°04'3 6.3
2017-Sep-19 19:31N 39°57' W 075°08'2 4.6
2017-Sep-19 19:01N 39°55' W 075°08'0 0.1
2017-Sep-19 18:31N 39°55' W 075°08'1 3.0
2017-Sep-19 18:00N 39°54' W 075°09'0 0.0
2017-Sep-19 17:31N 39°54' W 075°09'0 0.0
2017-Sep-19 17:01N 39°54' W 075°09'0 0.0
2017-Sep-19 16:30N 39°54' W 075°09'0 0.0
2017-Sep-19 16:01N 39°54' W 075°09'0 0.0
2017-Sep-19 15:31N 39°54' W 075°09'0 0.0
2017-Sep-19 15:01N 39°54' W 075°09'0 0.0
2017-Sep-19 14:31N 39°54' W 075°09'0 0.0
2017-Sep-19 14:00N 39°54' W 075°09'1 3.0
2017-Sep-19 13:31N 39°55' W 075°08'0 0.9
2017-Sep-19 13:01N 39°55' W 075°08'0 0.4
2017-Sep-19 12:31N 39°55' W 075°08'0 0.5
2017-Sep-19 12:00N 39°54' W 075°08'2 3.2
2017-Sep-19 11:31N 39°53' W 075°09'2 4.6
2017-Sep-19 11:00N 39°53' W 075°12'1 1.1
2017-Sep-19 10:31N 39°53' W 075°11'2 4.8
2017-Sep-19 10:01N 39°54' W 075°09'0 0.0
2017-Sep-19 09:30N 39°54' W 075°09'0 0.0
2017-Sep-19 09:01N 39°54' W 075°09'0 0.0
2017-Sep-19 08:31N 39°54' W 075°09'0 0.0
2017-Sep-19 08:00N 39°54' W 075°09'0 0.0
2017-Sep-19 07:30N 39°54' W 075°09'0 0.0
2017-Sep-19 07:01N 39°54' W 075°09'0 0.0
2017-Sep-19 06:31N 39°54' W 075°09'0 0.0
2017-Sep-19 06:01N 39°54' W 075°09'0 0.0
2017-Sep-19 05:30N 39°54' W 075°09'0 0.0
2017-Sep-19 05:01N 39°54' W 075°09'0 0.0
2017-Sep-19 04:31N 39°54' W 075°09'0 0.0
2017-Sep-19 04:00N 39°54' W 075°09'0 0.0
2017-Sep-19 03:31N 39°54' W 075°09'0 0.0
2017-Sep-19 03:00N 39°54' W 075°09'0 0.0
2017-Sep-19 02:30N 39°54' W 075°09'0 0.0
2017-Sep-19 02:01N 39°54' W 075°09'0 0.0
2017-Sep-19 01:31N 39°54' W 075°09'0 0.0
2017-Sep-19 01:00N 39°54' W 075°09'0 0.0
2017-Sep-19 00:31N 39°54' W 075°09'0 0.0
2017-Sep-19 00:00N 39°54' W 075°09'0 0.0
2017-Sep-18 23:31N 39°54' W 075°09'0 0.0
2017-Sep-18 23:01N 39°54' W 075°09'0 0.0
2017-Sep-18 22:31N 39°54' W 075°09'0 0.0
2017-Sep-18 22:00N 39°54' W 075°09'0 0.0
2017-Sep-18 21:31N 39°54' W 075°09'0 0.0
2017-Sep-18 21:00N 39°54' W 075°09'0 0.0
2017-Sep-18 20:30N 39°54' W 075°09'2 4.8
2017-Sep-18 20:00N 39°53' W 075°12'1 1.8
2017-Sep-18 19:30N 39°54' W 075°12'3 5.0
2017-Sep-18 19:00N 39°52' W 075°14'4 7.5
2017-Sep-18 18:30N 39°51' W 075°19'4 8.1
2017-Sep-18 18:00N 39°49' W 075°24'4 8.5
2017-Sep-18 17:30N 39°47' W 075°28'4 8.3
2017-Sep-18 17:00N 39°43' W 075°31'0 0.8
2017-Sep-18 16:30N 39°43' W 075°31'0 0.0
2017-Sep-18 16:00N 39°43' W 075°31'0 0.0
2017-Sep-18 15:30N 39°43' W 075°31'0 0.0
2017-Sep-18 15:00N 39°43' W 075°31'0 0.0
2017-Sep-18 14:30N 39°43' W 075°31'0 0.0
2017-Sep-18 14:00N 39°43' W 075°31'0 0.0
2017-Sep-18 13:30N 39°43' W 075°31'0 0.0
2017-Sep-18 13:00N 39°43' W 075°31'0 0.0
2017-Sep-18 12:30N 39°43' W 075°31'0 0.0
2017-Sep-18 12:01N 39°43' W 075°31'1 2.0
2017-Sep-18 11:30N 39°44' W 075°30'3 6.4
2017-Sep-18 11:00N 39°47' W 075°28'510.2
2017-Sep-18 10:30N 39°49' W 075°23'611.2
2017-Sep-18 10:00N 39°51' W 075°16'510.5
2017-Sep-18 09:31N 39°53' W 075°09'1 2.2
2017-Sep-18 09:01N 39°54' W 075°08'1 2.3
2017-Sep-18 08:31N 39°53' W 075°09'2 3.7
2017-Sep-18 08:00N 39°53' W 075°12'2 3.4
2017-Sep-18 07:31N 39°52' W 075°13'3 6.5
2017-Sep-18 07:00N 39°51' W 075°17'3 6.5
2017-Sep-18 06:30N 39°50' W 075°21'3 5.0
2017-Sep-18 06:00N 39°49' W 075°24'1 1.1
2017-Sep-18 05:31N 39°48' W 075°24'0 0.4
2017-Sep-18 05:00N 39°49' W 075°24'0 0.2
2017-Sep-18 04:30N 39°49' W 075°24'0 0.1
2017-Sep-18 04:00N 39°49' W 075°24'0 0.0
2017-Sep-18 03:31N 39°49' W 075°24'0 0.0
2017-Sep-18 03:01N 39°49' W 075°24'0 0.3
2017-Sep-18 02:30N 39°49' W 075°24'0 0.2
2017-Sep-18 02:01N 39°49' W 075°24'0 0.1
2017-Sep-18 01:30N 39°49' W 075°24'0 0.8
2017-Sep-18 01:00N 39°49' W 075°24'3 5.1
2017-Sep-18 00:30N 39°51' W 075°21'3 6.4
2017-Sep-18 00:00N 39°51' W 075°17'4 7.1
2017-Sep-17 23:30N 39°52' W 075°13'1 2.6
2017-Sep-17 23:00N 39°53' W 075°12'1 1.1
2017-Sep-17 22:30N 39°53' W 075°12'3 5.0
2017-Sep-17 22:00N 39°54' W 075°09'0 0.0
2017-Sep-17 21:30N 39°54' W 075°09'0 0.0
2017-Sep-17 21:00N 39°54' W 075°09'0 0.2
2017-Sep-17 20:30N 39°54' W 075°08'0 0.0
2017-Sep-17 20:00N 39°54' W 075°08'2 4.3
2017-Sep-17 19:30N 39°53' W 075°11'3 6.8
2017-Sep-17 19:00N 39°51' W 075°15'3 6.9
2017-Sep-17 18:30N 39°51' W 075°19'4 7.1
2017-Sep-17 18:00N 39°49' W 075°23'4 7.6
2017-Sep-17 17:30N 39°47' W 075°27'4 7.2
2017-Sep-17 17:00N 39°44' W 075°30'1 2.8
2017-Sep-17 16:30N 39°43' W 075°31'0 0.5
2017-Sep-17 16:00N 39°43' W 075°31'0 0.0
2017-Sep-17 15:30N 39°43' W 075°31'0 0.0
2017-Sep-17 15:00N 39°43' W 075°31'0 0.0
2017-Sep-17 14:31N 39°43' W 075°31'0 0.0
2017-Sep-17 14:01N 39°43' W 075°31'0 0.0
2017-Sep-17 13:30N 39°43' W 075°31'0 0.0
2017-Sep-17 13:01N 39°43' W 075°31'0 0.0
2017-Sep-17 12:31N 39°43' W 075°31'0 0.5
2017-Sep-17 12:01N 39°43' W 075°31'2 3.8
2017-Sep-17 11:30N 39°45' W 075°30'4 7.4
2017-Sep-17 11:00N 39°48' W 075°27'4 7.4
2017-Sep-17 10:31N 39°50' W 075°23'4 7.2
2017-Sep-17 10:01N 39°51' W 075°18'4 7.4
2017-Sep-17 09:30N 39°52' W 075°14'4 7.1
2017-Sep-17 09:00N 39°53' W 075°09'3 6.5
2017-Sep-17 08:31N 39°56' W 075°08'3 6.7
2017-Sep-17 08:00N 39°59' W 075°05'1 2.0
2017-Sep-17 07:31N 39°59' W 075°04'1 2.0
2017-Sep-17 07:01N 39°59' W 075°05'0 0.0
2017-Sep-17 06:31N 39°59' W 075°05'0 0.0
2017-Sep-17 06:00N 39°59' W 075°05'0 0.0
2017-Sep-17 05:30N 39°59' W 075°05'0 0.0
2017-Sep-17 05:00N 39°59' W 075°05'0 0.0
2017-Sep-17 04:31N 39°59' W 075°05'0 0.0
2017-Sep-17 04:00N 39°59' W 075°05'0 0.0
2017-Sep-17 03:30N 39°59' W 075°05'0 0.0
2017-Sep-17 03:01N 39°59' W 075°05'0 0.0
2017-Sep-17 02:30N 39°59' W 075°05'1 2.1
2017-Sep-17 02:00N 39°59' W 075°04'4 8.6
2017-Sep-17 01:30N 39°56' W 075°08'2 4.1
2017-Sep-17 01:00N 39°54' W 075°08'0 0.1
2017-Sep-17 00:30N 39°54' W 075°09'0 0.0
2017-Sep-17 00:00N 39°54' W 075°09'0 0.0
2017-Sep-16 23:30N 39°54' W 075°09'0 0.0
2017-Sep-16 23:00N 39°54' W 075°09'0 0.0
2017-Sep-16 22:30N 39°54' W 075°09'0 0.0
2017-Sep-16 22:00N 39°54' W 075°09'0 0.0
2017-Sep-16 21:30N 39°54' W 075°09'0 0.0
2017-Sep-16 21:00N 39°54' W 075°09'0 0.0
2017-Sep-16 20:30N 39°54' W 075°09'0 0.0
2017-Sep-16 20:00N 39°54' W 075°09'0 0.0
2017-Sep-16 19:30N 39°54' W 075°09'0 0.0
2017-Sep-16 19:00N 39°54' W 075°09'0 0.0
2017-Sep-16 18:30N 39°54' W 075°09'0 0.0
2017-Sep-16 18:00N 39°54' W 075°09'0 0.0
2017-Sep-16 17:30N 39°54' W 075°09'0 0.0
2017-Sep-16 17:00N 39°54' W 075°09'0 0.0
2017-Sep-16 16:30N 39°54' W 075°09'0 0.0
2017-Sep-16 16:00N 39°54' W 075°09'0 0.0
2017-Sep-16 15:30N 39°54' W 075°09'0 0.0
2017-Sep-16 15:00N 39°54' W 075°09'0 0.0
2017-Sep-16 14:30N 39°54' W 075°09'0 0.0
2017-Sep-16 14:00N 39°54' W 075°09'0 0.0
2017-Sep-16 13:30N 39°54' W 075°09'0 0.0
2017-Sep-16 13:00N 39°54' W 075°09'0 0.0
2017-Sep-16 12:31N 39°54' W 075°09'2 4.9
2017-Sep-16 12:00N 39°53' W 075°12'0 0.3
2017-Sep-16 11:31N 39°53' W 075°12'3 5.5
2017-Sep-16 11:00N 39°54' W 075°08'4 8.3
2017-Sep-16 10:30N 39°58' W 075°08'3 6.1
2017-Sep-16 10:00N 39°59' W 075°04'1 2.2
2017-Sep-16 09:30N 39°59' W 075°05'0 0.0
2017-Sep-16 09:00N 39°59' W 075°05'0 0.0
2017-Sep-16 08:30N 39°59' W 075°05'0 0.0
2017-Sep-16 08:01N 39°59' W 075°05'0 0.0
2017-Sep-16 07:31N 39°59' W 075°05'0 0.0
2017-Sep-16 07:00N 39°59' W 075°05'0 0.4
2017-Sep-16 06:30N 39°59' W 075°05'1 1.5
2017-Sep-16 06:00N 39°59' W 075°04'3 6.2
2017-Sep-16 05:31N 39°58' W 075°08'4 7.3
2017-Sep-16 05:00N 39°54' W 075°08'3 6.0
2017-Sep-16 04:31N 39°53' W 075°12'1 1.5
2017-Sep-16 04:01N 39°54' W 075°12'2 3.9
2017-Sep-16 03:31N 39°53' W 075°10'1 2.7
2017-Sep-16 03:00N 39°54' W 075°09'0 0.0
2017-Sep-16 02:30N 39°54' W 075°09'0 0.0
2017-Sep-16 02:00N 39°54' W 075°09'0 0.0
2017-Sep-16 01:31N 39°54' W 075°09'0 0.0
2017-Sep-16 01:00N 39°54' W 075°09'0 0.0
2017-Sep-16 00:30N 39°54' W 075°09'0 0.0
2017-Sep-16 00:00N 39°54' W 075°09'0 0.0
2017-Sep-15 23:30N 39°54' W 075°09'0 0.0
2017-Sep-15 23:00N 39°54' W 075°09'0 0.0
2017-Sep-15 22:30N 39°54' W 075°09'0 0.0
2017-Sep-15 22:00N 39°54' W 075°09'0 0.0
2017-Sep-15 21:30N 39°54' W 075°09'0 0.0
2017-Sep-15 21:00N 39°54' W 075°09'0 0.0
2017-Sep-15 20:30N 39°54' W 075°09'0 0.0
2017-Sep-15 20:00N 39°54' W 075°09'0 0.0
2017-Sep-15 19:30N 39°54' W 075°09'0 0.0
2017-Sep-15 19:00N 39°54' W 075°09'0 0.0
2017-Sep-15 18:30N 39°54' W 075°09'0 0.0
2017-Sep-15 18:00N 39°54' W 075°09'0 0.0
2017-Sep-15 17:30N 39°54' W 075°09'0 0.0
2017-Sep-15 17:01N 39°54' W 075°09'0 0.0
2017-Sep-15 16:30N 39°54' W 075°09'0 0.0
2017-Sep-15 16:00N 39°54' W 075°09'0 0.0
2017-Sep-15 15:30N 39°54' W 075°09'0 0.0
2017-Sep-15 15:00N 39°54' W 075°09'0 0.0
2017-Sep-15 14:30N 39°54' W 075°09'4 7.0
2017-Sep-15 14:00N 39°52' W 075°13'0 0.7
2017-Sep-15 13:30N 39°52' W 075°13'2 3.2
2017-Sep-15 13:00N 39°53' W 075°12'0 0.5
2017-Sep-15 12:31N 39°54' W 075°12'0 0.0
2017-Sep-15 12:01N 39°54' W 075°12'0 0.0
2017-Sep-15 11:30N 39°54' W 075°12'0 0.0
2017-Sep-15 11:00N 39°54' W 075°12'0 0.0
2017-Sep-15 10:30N 39°54' W 075°12'0 0.0
2017-Sep-15 10:01N 39°54' W 075°12'0 0.0
2017-Sep-15 09:31N 39°54' W 075°12'0 0.0
2017-Sep-15 09:01N 39°54' W 075°12'0 0.0
2017-Sep-15 08:31N 39°54' W 075°12'0 0.0
2017-Sep-15 08:01N 39°54' W 075°12'0 0.0
2017-Sep-15 07:31N 39°54' W 075°12'0 0.0
2017-Sep-15 07:00N 39°54' W 075°12'0 0.0
2017-Sep-15 06:31N 39°54' W 075°12'0 0.0
2017-Sep-15 06:01N 39°54' W 075°12'0 0.0
2017-Sep-15 05:31N 39°54' W 075°12'0 0.0
2017-Sep-15 05:00N 39°54' W 075°12'0 0.0
2017-Sep-15 04:30N 39°54' W 075°12'0 0.0
2017-Sep-15 04:01N 39°54' W 075°12'1 1.1
2017-Sep-15 03:30N 39°54' W 075°12'1 1.5
2017-Sep-15 03:00N 39°53' W 075°12'4 8.0
2017-Sep-15 02:31N 39°51' W 075°16'4 7.6
2017-Sep-15 02:00N 39°50' W 075°21'3 5.2
2017-Sep-15 01:30N 39°49' W 075°24'0 0.0
2017-Sep-15 01:00N 39°49' W 075°24'0 0.0
2017-Sep-15 00:30N 39°49' W 075°24'0 0.0
2017-Sep-15 00:00N 39°49' W 075°24'0 0.0
2017-Sep-14 23:30N 39°49' W 075°24'0 0.0
2017-Sep-14 23:00N 39°49' W 075°24'0 0.0
2017-Sep-14 22:30N 39°49' W 075°24'0 0.0
2017-Sep-14 22:00N 39°49' W 075°24'0 0.7
2017-Sep-14 21:30N 39°49' W 075°23'1 1.8
2017-Sep-14 21:00N 39°50' W 075°23'3 6.1
2017-Sep-14 20:30N 39°51' W 075°19'3 6.4
2017-Sep-14 20:00N 39°51' W 075°15'3 6.7
2017-Sep-14 19:30N 39°53' W 075°12'2 3.0
2017-Sep-14 19:00N 39°55' W 075°13'0 0.0
2017-Sep-14 18:30N 39°55' W 075°13'0 0.0
2017-Sep-14 18:00N 39°55' W 075°13'0 0.0
2017-Sep-14 17:30N 39°55' W 075°13'0 0.0
2017-Sep-14 17:00N 39°55' W 075°13'0 0.0
2017-Sep-14 16:30N 39°55' W 075°13'0 0.0
2017-Sep-14 16:00N 39°55' W 075°13'0 0.2
2017-Sep-14 15:31N 39°55' W 075°13'4 7.4
2017-Sep-14 15:00N 39°53' W 075°08'0 0.7
2017-Sep-14 14:31N 39°54' W 075°09'0 0.0
2017-Sep-14 14:01N 39°54' W 075°09'0 0.0
2017-Sep-14 13:31N 39°54' W 075°09'0 0.0
2017-Sep-14 13:01N 39°54' W 075°09'0 0.0
2017-Sep-14 12:31N 39°54' W 075°09'0 0.0
2017-Sep-14 12:01N 39°54' W 075°09'0 0.1
2017-Sep-14 11:31N 39°54' W 075°08'4 7.6
2017-Sep-14 11:01N 39°52' W 075°13'0 0.1
2017-Sep-14 10:31N 39°52' W 075°13'3 5.5
2017-Sep-14 10:00N 39°53' W 075°10'2 3.7
2017-Sep-14 09:31N 39°54' W 075°08'0 0.0
2017-Sep-14 09:00N 39°54' W 075°08'0 0.0
2017-Sep-14 08:30N 39°54' W 075°08'0 0.0
2017-Sep-14 08:00N 39°54' W 075°08'0 0.0
2017-Sep-14 07:30N 39°54' W 075°08'0 0.0
2017-Sep-14 07:00N 39°54' W 075°08'0 0.0
2017-Sep-14 06:30N 39°54' W 075°08'0 0.0
2017-Sep-14 06:00N 39°54' W 075°08'0 0.0
2017-Sep-14 05:31N 39°54' W 075°08'0 0.0
2017-Sep-14 05:00N 39°54' W 075°08'0 0.0
2017-Sep-14 04:30N 39°54' W 075°08'1 2.2
2017-Sep-14 04:01N 39°53' W 075°08'3 5.1
2017-Sep-14 03:31N 39°53' W 075°12'1 2.9
2017-Sep-14 03:00N 39°55' W 075°13'0 0.0
2017-Sep-14 02:30N 39°55' W 075°13'3 5.6
2017-Sep-14 02:00N 39°53' W 075°10'4 7.4
2017-Sep-14 01:30N 39°56' W 075°08'3 6.2
2017-Sep-14 01:00N 39°59' W 075°06'0 0.3
2017-Sep-14 00:31N 39°59' W 075°06'2 3.8
2017-Sep-14 00:00N 39°58' W 075°08'2 4.1
2017-Sep-13 23:30N 39°59' W 075°05'1 1.7
2017-Sep-13 23:00N 39°58' W 075°06'4 8.3
2017-Sep-13 22:31N 39°54' W 075°08'1 1.6
2017-Sep-13 22:00N 39°54' W 075°09'0 0.0
2017-Sep-13 21:30N 39°54' W 075°09'0 0.0
2017-Sep-13 21:01N 39°54' W 075°09'0 0.0
2017-Sep-13 20:30N 39°54' W 075°09'0 0.0
2017-Sep-13 20:00N 39°54' W 075°09'0 0.0
2017-Sep-13 19:31N 39°54' W 075°09'0 0.0
2017-Sep-13 19:01N 39°54' W 075°09'1 2.0
2017-Sep-13 18:30N 39°53' W 075°09'2 3.9
2017-Sep-13 18:01N 39°53' W 075°12'2 3.3
2017-Sep-13 17:30N 39°52' W 075°13'4 7.1
2017-Sep-13 17:01N 39°51' W 075°17'4 7.9
2017-Sep-13 16:30N 39°50' W 075°22'4 8.2
2017-Sep-13 16:00N 39°47' W 075°27'4 8.2
2017-Sep-13 15:30N 39°44' W 075°30'2 3.0
2017-Sep-13 15:00N 39°43' W 075°31'0 0.3
2017-Sep-13 14:30N 39°43' W 075°31'0 0.0
2017-Sep-13 14:01N 39°43' W 075°31'0 0.0
2017-Sep-13 13:30N 39°43' W 075°31'0 0.0
2017-Sep-13 13:01N 39°43' W 075°31'0 0.2
2017-Sep-13 12:30N 39°43' W 075°31'0 0.0
2017-Sep-13 12:01N 39°43' W 075°31'1 1.7
2017-Sep-13 11:30N 39°42' W 075°31'0 0.3
2017-Sep-13 11:00N 39°43' W 075°30'0 0.3
2017-Sep-13 10:31N 39°43' W 075°30'0 0.8
2017-Sep-13 10:01N 39°43' W 075°30'1 2.9
2017-Sep-13 09:30N 39°44' W 075°30'2 3.4
2017-Sep-13 09:00N 39°46' W 075°29'2 3.6
2017-Sep-13 08:30N 39°47' W 075°27'2 4.0
2017-Sep-13 08:00N 39°48' W 075°25'2 3.8
2017-Sep-13 07:30N 39°49' W 075°23'2 3.9
2017-Sep-13 07:00N 39°51' W 075°21'2 4.2
2017-Sep-13 06:31N 39°51' W 075°18'2 4.8
2017-Sep-13 06:01N 39°51' W 075°15'3 5.3
2017-Sep-13 05:31N 39°53' W 075°12'3 5.2
2017-Sep-13 05:01N 39°53' W 075°09'1 2.5
2017-Sep-13 04:31N 39°54' W 075°08'0 0.0
2017-Sep-13 04:00N 39°54' W 075°08'0 0.0
2017-Sep-13 03:31N 39°54' W 075°08'0 0.0
2017-Sep-13 03:00N 39°54' W 075°08'0 0.0
2017-Sep-13 02:31N 39°54' W 075°08'0 0.0
2017-Sep-13 02:00N 39°54' W 075°08'0 0.0
2017-Sep-13 01:30N 39°54' W 075°08'2 4.2
2017-Sep-13 01:00N 39°56' W 075°08'4 8.0
2017-Sep-13 00:30N 39°59' W 075°04'0 0.2
2017-Sep-13 00:00N 39°59' W 075°04'1 1.7
2017-Sep-12 23:30N 39°59' W 075°05'0 0.0
2017-Sep-12 23:01N 39°59' W 075°05'0 0.0
2017-Sep-12 22:30N 39°59' W 075°05'0 0.0
2017-Sep-12 22:00N 39°59' W 075°05'1 1.2
2017-Sep-12 21:30N 39°59' W 075°05'4 7.6
2017-Sep-12 21:01N 39°56' W 075°08'2 4.5
2017-Sep-12 20:30N 39°54' W 075°09'0 0.0
2017-Sep-12 20:00N 39°54' W 075°09'0 0.0
2017-Sep-12 19:30N 39°54' W 075°09'0 0.0
2017-Sep-12 19:00N 39°54' W 075°09'0 0.0
2017-Sep-12 18:30N 39°54' W 075°09'0 0.0
2017-Sep-12 18:01N 39°54' W 075°09'0 0.0
2017-Sep-12 17:30N 39°54' W 075°09'0 0.0
2017-Sep-12 17:00N 39°54' W 075°09'0 0.0
2017-Sep-12 16:30N 39°54' W 075°09'0 0.0
2017-Sep-12 16:00N 39°54' W 075°09'0 0.0
2017-Sep-12 15:31N 39°54' W 075°09'0 0.0
2017-Sep-12 15:00N 39°54' W 075°09'0 0.0
2017-Sep-12 14:30N 39°54' W 075°09'0 0.0
2017-Sep-12 14:01N 39°54' W 075°09'0 0.0
2017-Sep-12 13:30N 39°54' W 075°09'0 0.0
2017-Sep-12 13:00N 39°54' W 075°09'0 0.0
2017-Sep-12 12:30N 39°54' W 075°09'5 1.7
2017-Sep-12 09:16N 39°59' W 075°05'0 0.0
2017-Sep-12 09:00N 39°59' W 075°05'0 0.0
2017-Sep-12 08:30N 39°59' W 075°05'0 0.0
2017-Sep-12 08:00N 39°59' W 075°05'0 0.0
2017-Sep-12 07:30N 39°59' W 075°05'0 0.0
2017-Sep-12 07:00N 39°59' W 075°05'2 4.2
2017-Sep-12 06:30N 39°58' W 075°08'4 7.9
2017-Sep-12 06:00N 39°54' W 075°08'3 5.3
2017-Sep-12 05:31N 39°53' W 075°12'0 0.0
2017-Sep-12 05:01N 39°53' W 075°12'0 0.0
2017-Sep-12 04:30N 39°53' W 075°12'0 0.0
2017-Sep-12 04:00N 39°53' W 075°12'0 0.1
2017-Sep-12 03:30N 39°54' W 075°12'0 0.0
2017-Sep-12 03:01N 39°54' W 075°12'0 0.0
2017-Sep-12 02:30N 39°54' W 075°12'0 0.0
2017-Sep-12 02:00N 39°54' W 075°12'0 0.0
2017-Sep-12 01:31N 39°54' W 075°12'0 0.4
2017-Sep-12 01:00N 39°53' W 075°12'4 7.0
2017-Sep-12 00:30N 39°56' W 075°08'4 8.7
2017-Sep-12 00:00N 39°59' W 075°04'2 4.0
2017-Sep-11 23:30N 39°58' W 075°07'4 8.3
2017-Sep-11 23:00N 39°54' W 075°08'1 1.3
2017-Sep-11 22:30N 39°54' W 075°09'0 0.0
2017-Sep-11 22:00N 39°54' W 075°09'0 0.0
2017-Sep-11 21:30N 39°54' W 075°09'0 0.0
2017-Sep-11 21:00N 39°54' W 075°09'0 0.0
2017-Sep-11 20:30N 39°54' W 075°09'0 0.1
2017-Sep-11 20:00N 39°54' W 075°08'4 7.5
2017-Sep-11 19:30N 39°52' W 075°13'510.1
2017-Sep-11 19:01N 39°51' W 075°19'510.6
2017-Sep-11 18:31N 39°48' W 075°25'0 0.0
2017-Sep-11 18:00N 39°48' W 075°25'0 0.8
2017-Sep-11 17:31N 39°48' W 075°25'3 6.1
2017-Sep-11 17:00N 39°46' W 075°28'4 7.3
2017-Sep-11 16:31N 39°43' W 075°30'3 6.8
2017-Sep-11 16:00N 39°40' W 075°32'3 6.2
2017-Sep-11 15:31N 39°38' W 075°35'3 6.1
2017-Sep-11 15:01N 39°35' W 075°33'4 7.5
2017-Sep-11 14:31N 39°33' W 075°38'5 9.9
2017-Sep-11 14:01N 39°32' W 075°44'4 8.7
2017-Sep-11 13:30N 39°32' W 075°50'4 8.7
2017-Sep-11 13:00N 39°30' W 075°55'4 8.8
2017-Sep-11 12:30N 39°27' W 075°59'4 8.5
2017-Sep-11 12:00N 39°24' W 076°03'4 8.4
2017-Sep-11 11:30N 39°22' W 076°08'4 8.0
2017-Sep-11 11:01N 39°20' W 076°12'4 7.5
2017-Sep-11 10:30N 39°17' W 076°14'4 7.9
2017-Sep-11 09:59N 39°13' W 076°15'4 8.1
2017-Sep-11 09:30N 39°10' W 076°18'3 5.9
2017-Sep-11 09:00N 39°10' W 076°22'4 8.2
2017-Sep-11 08:30N 39°11' W 076°27'4 7.8
2017-Sep-11 08:01N 39°13' W 076°32'3 5.9
2017-Sep-11 07:31N 39°15' W 076°34'0 0.6
2017-Sep-11 07:00N 39°15' W 076°34'0 0.1
2017-Sep-11 06:31N 39°15' W 076°34'0 0.0
2017-Sep-11 06:00N 39°15' W 076°34'0 0.0
2017-Sep-11 05:30N 39°15' W 076°34'0 0.0
2017-Sep-11 05:00N 39°15' W 076°34'  

Dump ship's entire track history